EPKKEPKT

Guest
Details From EPKK - Balice
To EPKT - Pyrzowice
Flight Number -
Tags Routegen Generated
Created
Modified
Stats Distance 39 nm / 72 km
Max Altitude 100 ft / 30 m
Waypoints 5
Social Downloads 17
Likes 0
Share

Download

Looking for another format? Having issues loading an existing format? Contact us
Advertisement - Login to hide

Notes

Departing runway 25 EPKK. Arriving runway 9 EPKT.

Route

EPKK +50.06_+019.66 +50.27_+019.43 +50.47_+019.21 EPKT

ID Type Via Altitude (ft/m) Position (lat/lon) Dist (leg/tot) Name
O EPKK APT - 0 / 0 50.07540 / 19.76809 - / 0 nm
+50.06_+019.66 LATLON - 100 / 30 50.06002 / 19.65793 4 / 4 nm
+50.27_+019.43 LATLON - 100 / 30 50.26696 / 19.43285 15 / 19 nm
+50.47_+019.21 LATLON - 100 / 30 50.47389 / 19.20777 15 / 34 nm
O EPKT APT - 0 / 0 50.47422 / 19.09407 4 / 38 nm

Altitude Profile

Advertisement - Login to hide

EPKK

Details ICAO EPKK (KRK)
Name Krakow-John Paul II
Region Poland
Timezone Europe/Warsaw (UTC+1.0)
Stats Elevation 791 ft / 241 m (AMSL)
Location 50.077800° 19.785500°
Runways 1
Magnetic Variation 5.687° E

METAR

EPKK 290730Z 26011KT 6000 -DZ OVC004 01/M00 Q0995

Decode

TAF

TAF EPKK 290530Z 2906/3006 26012KT 9999 OVC006 TEMPO 2906/3006 3000 -SN BR BKN003 BECMG 2910/2912 26015G26KT BKN012 PROB40 TEMPO 2910/3006 1200 SN BLSN

Decode

Departure Runways

ID Width Length Bearing (true/mag) Surface Threshold Overrun Markings Lighting
07 197 ft / 60 m 8,352 ft / 2,546 m 77.76° / 72.07° CONCRETE 0 ft / 0 m 0 ft / 0 m PREC-APP CENTERLINE EDGE THRESHOLD ALSF-I REIL-OMNI
25 197 ft / 60 m 8,352 ft / 2,546 m 257.78° / 252.10° CONCRETE 778 ft / 237 m 0 ft / 0 m PREC-APP CENTERLINE EDGE THRESHOLD ALSF-II TDZ REIL-OMNI

EPKT

Details ICAO EPKT (KTW)
Name Katowice Airport
Region Poland
Timezone Europe/Warsaw (UTC+1.0)
Stats Elevation 995 ft / 303 m (AMSL)
Location 50.476000° 19.082100°
Runways 1
Magnetic Variation 5.578° E

METAR

EPKT 290730Z 28010KT 9000 FEW002 OVC004 M00/M00 Q0995

Decode

TAF

TAF EPKT 290530Z 2906/3006 28010KT 2000 BR OVC002 PROB40 TEMPO 2906/2908 0800 FZFG OVC001 BECMG 2908/2911 29015G26KT 7000 OVC005 TEMPO 2908/3006 3000 -SN BR OVC002 PROB40 TEMPO 2915/3006 1200 SN BLSN

Decode

Destination Runways

ID Width Length Bearing (true/mag) Surface Threshold Overrun Markings Lighting
09 145 ft / 44 m 10,499 ft / 3,200 m 90.18° / 84.60° CONCRETE 0 ft / 0 m 102 ft / 31 m PREC-APP CENTERLINE EDGE THRESHOLD SALS REIL-OMNI
27 145 ft / 44 m 10,499 ft / 3,200 m 270.21° / 264.64° CONCRETE 1,056 ft / 322 m 98 ft / 30 m PREC-APP CENTERLINE EDGE THRESHOLD CALVERT REIL-OMNI

Approach Navaids

Runway Type Ident Frequency Range Bearing (true/mag) Slope Elevation
27 GS IKTO 109.90 MHz 10 nm / 19 km 270.20° / 264.62 ° 3.00° 995 ft / 303 m (AMSL)
27 OM OM - - 270.20° / 264.62 ° - 995 ft / 303 m (AMSL)
27 LOC-ILS IKTO 109.90 MHz 18 nm / 33 km 270.20° / 264.62 ° - 995 ft / 303 m (AMSL)
27 MM MM - - 270.20° / 264.62 ° - 995 ft / 303 m (AMSL)

Popular Alternatives